Time;durP1;ratioP1;P1;durP2;ratioP2;P2;SDS_P1;SDS_P2;PMS_P1;PMS_P2;Temp;Humidity;BMP_temperature;BMP_pressure;BME280_temperature;BME280_humidity;BME280_pressure;Samples;Min_cycle;Max_cycle;Signal;HPM_P1;HPM_P2
2022/10/09 00:02:24;;;;;;;;;10.00;8.25;;;;;12.72;100.00;102132.31;5078582;28;59184;-72
2022/10/09 00:04:49;;;;;;;;;9.00;9.00;;;;;12.71;100.00;102136.72;5078014;27;59468;-72
2022/10/09 00:07:15;;;;;;;;;7.00;5.25;;;;;12.68;100.00;102126.06;5076883;27;57584;-71
2022/10/09 00:09:40;;;;;;;;;9.00;8.75;;;;;12.68;100.00;102125.19;5078245;27;45193;-72
2022/10/09 00:12:05;;;;;;;;;12.25;10.00;;;;;12.68;100.00;102125.19;5078023;27;46294;-72
2022/10/09 00:14:31;;;;;;;;;12.00;6.75;;;;;12.64;100.00;102120.66;5078171;27;45253;-72
2022/10/09 00:16:56;;;;;;;;;14.00;7.25;;;;;12.66;100.00;102132.19;5077896;27;55690;-72
2022/10/09 00:19:21;;;;;;;;;11.50;10.25;;;;;12.60;100.00;102124.97;5078021;27;52112;-72
2022/10/09 00:21:47;;;;;;;;;12.50;9.75;;;;;12.61;100.00;102124.13;5077631;27;58606;-72
2022/10/09 00:24:12;;;;;;;;;11.50;9.00;;;;;12.58;100.00;102124.97;5077410;27;62385;-72
2022/10/09 00:26:37;;;;;;;;;10.50;8.25;;;;;12.56;100.00;102126.66;5076603;27;57992;-71
2022/10/09 00:29:03;;;;;;;;;12.25;8.25;;;;;12.57;100.00;102125.81;5078356;28;50526;-72
2022/10/09 00:31:28;;;;;;;;;8.00;8.00;;;;;12.55;100.00;102121.31;5078417;28;62546;-71
2022/10/09 00:33:54;;;;;;;;;10.00;8.75;;;;;12.51;100.00;102120.34;5060341;28;45327;-71
2022/10/09 00:36:21;;;;;;;;;16.00;9.00;;;;;12.50;100.00;102115.03;5078502;27;45224;-72
2022/10/09 00:38:47;;;;;;;;;9.00;8.00;;;;;12.48;100.00;102115.00;5059723;28;45480;-72
2022/10/09 00:41:25;;;;;;;;;10.00;9.25;;;;;12.48;100.00;102122.06;5059760;28;46535;-72
2022/10/09 00:44:02;;;;;;;;;10.75;10.75;;;;;12.48;100.00;102111.47;5077964;27;45395;-72
2022/10/09 00:46:33;;;;;;;;;10.00;9.25;;;;;12.47;100.00;102120.28;5076131;27;45348;-72
2022/10/09 00:49:03;;;;;;;;;10.00;8.00;;;;;12.47;100.00;102118.50;5078523;28;45476;-71
2022/10/09 00:51:29;;;;;;;;;8.75;8.75;;;;;12.45;100.00;102108.72;5059931;28;46011;-72
2022/10/09 00:53:55;;;;;;;;;7.50;7.50;;;;;12.43;100.00;102119.28;5059685;28;45494;-72
2022/10/09 00:56:23;;;;;;;;;9.00;9.00;;;;;12.43;100.00;102111.34;5076196;27;45189;-72
2022/10/09 00:58:52;;;;;;;;;15.00;9.00;;;;;12.40;100.00;102113.91;5077857;27;45585;-72
2022/10/09 01:01:18;;;;;;;;;9.00;6.67;;;;;12.40;100.00;102115.66;5077577;28;47352;-72
2022/10/09 01:03:43;;;;;;;;;9.67;9.00;;;;;12.38;100.00;102110.34;5059348;27;45329;-72
2022/10/09 01:06:38;;;;;;;;;7.00;7.00;;;;;12.38;100.00;102104.16;5077154;27;54253;-72
2022/10/09 01:09:14;;;;;;;;;9.67;8.00;;;;;12.38;100.00;102107.69;5022613;28;45309;-72
2022/10/09 01:11:48;;;;;;;;;9.00;5.67;;;;;12.36;100.00;102106.78;5059194;27;46640;-72
2022/10/09 01:14:21;;;;;;;;;8.67;5.67;;;;;12.34;100.00;102087.28;5077243;27;45331;-72
2022/10/09 01:17:18;;;;;;;;;9.00;5.67;;;;;12.33;100.00;102096.97;5059419;28;45501;-72
2022/10/09 01:20:12;;;;;;;;;11.00;8.00;;;;;12.31;100.00;102093.41;5077646;28;45334;-72
2022/10/09 01:22:45;;;;;;;;;5.00;5.00;;;;;12.30;100.00;102090.69;5077367;28;45410;-72
2022/10/09 01:25:14;;;;;;;;;9.00;7.67;;;;;12.27;100.00;102083.59;5059404;28;46073;-72
2022/10/09 01:27:41;;;;;;;;;9.00;8.00;;;;;12.24;100.00;102077.31;5056131;28;45308;-72
2022/10/09 01:30:10;;;;;;;;;5.67;5.67;;;;;12.25;100.00;102085.31;5058035;27;45790;-72
2022/10/09 01:32:42;;;;;;;;;9.33;6.00;;;;;12.22;100.00;102068.47;5057568;28;47582;-72
2022/10/09 01:35:09;;;;;;;;;11.00;8.00;;;;;12.22;100.00;102063.16;5055990;28;45277;-72
2022/10/09 01:37:35;;;;;;;;;8.00;6.00;;;;;12.20;100.00;102063.13;5057795;28;45288;-72
2022/10/09 01:40:03;;;;;;;;;8.33;6.00;;;;;12.19;100.00;102065.72;5058123;28;52306;-71
2022/10/09 01:42:29;;;;;;;;;12.33;8.00;;;;;12.15;100.00;102048.88;5059764;28;45813;-72
2022/10/09 01:44:54;;;;;;;;;8.33;5.00;;;;;12.14;100.00;102044.41;5058296;28;45373;-72
2022/10/09 01:47:20;;;;;;;;;9.00;6.33;;;;;12.13;100.00;102047.03;5077965;28;45315;-72
2022/10/09 01:49:51;;;;;;;;;5.00;4.00;;;;;12.14;100.00;102036.47;5076290;28;45646;-72
2022/10/09 01:52:52;;;;;;;;;7.00;5.00;;;;;12.12;100.00;102037.31;5077320;28;46426;-72
2022/10/09 01:55:54;;;;;;;;;8.75;6.25;;;;;12.10;100.00;102039.03;5072972;28;45322;-72
2022/10/09 01:58:27;;;;;;;;;5.50;5.50;;;;;12.07;100.00;102032.78;5077541;28;45398;-72
2022/10/09 02:01:07;;;;;;;;;8.00;7.00;;;;;12.04;100.00;102027.44;5057635;28;45645;-72
2022/10/09 02:03:35;;;;;;;;;5.00;5.00;;;;;12.03;100.00;102024.75;5077272;28;45687;-72
2022/10/09 02:06:03;;;;;;;;;7.00;4.25;;;;;12.01;100.00;102029.13;5058490;28;45438;-72
2022/10/09 02:08:30;;;;;;;;;4.00;4.00;;;;;11.98;100.00;102029.91;5058868;28;45328;-72
2022/10/09 02:10:57;;;;;;;;;7.00;4.00;;;;;11.99;100.00;102030.84;5058931;28;45461;-72
2022/10/09 02:13:22;;;;;;;;;7.00;5.00;;;;;11.96;100.00;102021.06;5058862;28;45735;-72
2022/10/09 02:16:11;;;;;;;;;9.00;5.00;;;;;11.95;100.00;102019.28;5076498;28;56628;-71
2022/10/09 02:18:40;;;;;;;;;5.25;5.25;;;;;11.93;100.00;102012.13;5058964;28;45245;-72
2022/10/09 02:21:12;;;;;;;;;7.75;7.75;;;;;11.92;100.00;102005.94;5058886;28;45260;-71
2022/10/09 02:23:39;;;;;;;;;8.00;6.50;;;;;11.91;100.00;102006.81;5058874;28;46942;-72
2022/10/09 02:26:04;;;;;;;;;8.00;4.00;;;;;11.87;100.00;102004.94;5058762;28;45371;-71
2022/10/09 02:28:30;;;;;;;;;5.00;5.00;;;;;11.86;100.00;102000.50;5076537;28;45301;-71
2022/10/09 02:31:02;;;;;;;;;4.75;3.75;;;;;11.85;100.00;101989.91;5058983;28;45229;-72
2022/10/09 02:33:34;;;;;;;;;6.00;5.00;;;;;11.84;100.00;101996.94;5055305;28;46229;-71
2022/10/09 02:36:00;;;;;;;;;5.00;5.00;;;;;11.84;100.00;101993.41;5068409;28;45356;-72
2022/10/09 02:38:25;;;;;;;;;5.00;5.00;;;;;11.84;100.00;101990.75;5058865;28;45418;-72
2022/10/09 02:40:51;;;;;;;;;4.50;3.00;;;;;11.81;100.00;101988.88;5076991;28;45393;-72
2022/10/09 02:43:16;;;;;;;;;4.75;4.25;;;;;11.80;100.00;101984.47;5076483;28;46751;-72
2022/10/09 02:45:41;;;;;;;;;9.00;5.00;;;;;11.76;100.00;101978.19;5058593;28;45351;-72
2022/10/09 02:48:07;;;;;;;;;3.25;3.25;;;;;11.77;100.00;101968.50;5058487;28;45383;-72
2022/10/09 02:50:34;;;;;;;;;4.75;3.00;;;;;11.77;100.00;101979.06;5058912;28;45497;-72
2022/10/09 02:52:59;;;;;;;;;4.75;4.25;;;;;11.75;100.00;101976.41;5076197;28;46387;-72
2022/10/09 02:55:24;;;;;;;;;3.50;3.50;;;;;11.73;100.00;101972.84;5075833;28;59317;-72
2022/10/09 02:57:50;;;;;;;;;5.00;3.50;;;;;11.67;100.00;101961.22;5075965;28;56986;-72
2022/10/09 03:00:15;;;;;;;;;5.25;4.25;;;;;11.69;100.00;101964.78;5058325;28;45502;-72
2022/10/09 03:02:40;;;;;;;;;4.00;4.00;;;;;11.68;100.00;101958.59;5079247;28;62656;-72
2022/10/09 03:05:06;;;;;;;;;4.75;4.00;;;;;11.67;100.00;101977.09;5079570;28;56745;-72
2022/10/09 03:07:32;;;;;;;;;8.75;5.00;;;;;11.63;100.00;101964.63;5079492;28;45494;-71
2022/10/09 03:09:57;;;;;;;;;12.75;5.00;;;;;11.65;100.00;101973.50;5080159;28;45168;-72
2022/10/09 03:12:23;;;;;;;;;4.00;4.00;;;;;11.61;100.00;101963.69;5079505;28;46318;-71
2022/10/09 03:14:48;;;;;;;;;8.75;4.00;;;;;11.59;100.00;101952.19;5079380;28;57332;-72
2022/10/09 03:17:13;;;;;;;;;7.00;3.00;;;;;11.57;100.00;101952.16;5079077;28;58271;-72
2022/10/09 03:19:39;;;;;;;;;8.00;4.75;;;;;11.58;100.00;101950.41;5080167;28;45553;-72
2022/10/09 03:22:04;;;;;;;;;4.50;4.00;;;;;11.59;100.00;101954.81;5079796;28;46336;-72
2022/10/09 03:24:29;;;;;;;;;7.75;4.00;;;;;11.58;100.00;101953.03;5079547;28;45397;-71
2022/10/09 03:26:55;;;;;;;;;4.00;4.00;;;;;11.57;100.00;101951.25;5079339;28;57258;-72
2022/10/09 03:29:20;;;;;;;;;2.75;2.75;;;;;11.51;100.00;101944.97;5079666;28;45402;-72
2022/10/09 03:31:45;;;;;;;;;7.50;4.50;;;;;11.53;100.00;101955.56;5079434;28;45542;-72
2022/10/09 03:34:11;;;;;;;;;8.00;6.00;;;;;11.52;100.00;101953.78;5079422;28;58050;-72
2022/10/09 03:36:36;;;;;;;;;5.50;3.00;;;;;11.49;100.00;101948.41;5061539;28;45343;-72
2022/10/09 03:39:02;;;;;;;;;6.00;4.25;;;;;11.46;100.00;101946.59;5044564;28;45292;-72
2022/10/09 03:41:27;;;;;;;;;3.00;2.25;;;;;11.43;100.00;101941.22;5079678;28;46386;-72
2022/10/09 03:43:52;;;;;;;;;8.25;3.00;;;;;11.41;100.00;101945.59;5078539;28;58697;-72
2022/10/09 03:46:18;;;;;;;;;6.75;4.00;;;;;11.40;100.00;101943.81;5079479;28;45264;-72
2022/10/09 03:48:43;;;;;;;;;5.00;2.75;;;;;11.40;100.00;101943.81;5061278;28;45375;-72
2022/10/09 03:51:08;;;;;;;;;6.25;2.00;;;;;11.39;100.00;101946.38;5078586;28;63817;-71
2022/10/09 03:53:34;;;;;;;;;3.00;3.00;;;;;11.36;100.00;101936.63;5079603;28;45312;-71
2022/10/09 03:55:59;;;;;;;;;4.00;4.00;;;;;11.37;100.00;101937.53;5079566;28;45295;-72
2022/10/09 03:58:25;;;;;;;;;3.75;2.75;;;;;11.33;100.00;101930.38;5078935;28;58946;-72
2022/10/09 04:00:53;;;;;;;;;7.00;4.00;;;;;11.32;100.00;101939.16;5078777;28;45661;-72
2022/10/09 04:03:19;;;;;;;;;6.75;3.75;;;;;11.32;100.00;101931.22;5078806;28;55566;-72
2022/10/09 04:05:45;;;;;;;;;3.75;3.50;;;;;11.28;100.00;101933.78;5057644;28;45233;-71
2022/10/09 04:08:10;;;;;;;;;4.75;4.50;;;;;11.25;100.00;101924.91;5069309;28;45196;-71
2022/10/09 04:10:36;;;;;;;;;4.25;3.00;;;;;11.23;100.00;101926.59;5078787;28;45664;-71
2022/10/09 04:13:01;;;;;;;;;7.75;4.00;;;;;11.24;100.00;101931.94;5077562;28;53045;-72
2022/10/09 04:15:27;;;;;;;;;3.50;3.50;;;;;11.20;100.00;101923.88;5078189;28;58120;-72
2022/10/09 04:17:52;;;;;;;;;4.25;3.00;;;;;11.20;100.00;101934.47;5078598;28;52537;-72
2022/10/09 04:20:19;;;;;;;;;4.75;3.00;;;;;11.18;100.00;101936.16;5079135;28;46754;-71
2022/10/09 04:22:45;;;;;;;;;8.00;3.75;;;;;11.17;100.00;101939.66;5078338;28;45441;-71
2022/10/09 04:25:10;;;;;;;;;5.50;3.00;;;;;11.12;100.00;101931.59;5079059;28;45300;-72
2022/10/09 04:27:35;;;;;;;;;2.50;2.50;;;;;11.11;100.00;101923.63;5078459;28;53948;-71
2022/10/09 04:30:01;;;;;;;;;3.00;3.00;;;;;11.12;100.00;101934.25;5079007;28;45675;-71
2022/10/09 04:32:26;;;;;;;;;7.00;3.00;;;;;11.10;100.00;101935.97;5078689;28;45362;-72
2022/10/09 04:34:51;;;;;;;;;3.00;3.00;;;;;11.06;100.00;101923.50;5078162;28;56133;-72
2022/10/09 04:37:17;;;;;;;;;7.25;3.25;;;;;11.04;100.00;101927.88;5078998;28;45493;-72
2022/10/09 04:39:42;;;;;;;;;3.00;3.00;;;;;11.06;100.00;101925.25;5059899;28;64925;-72
2022/10/09 04:42:08;;;;;;;;;3.00;3.00;;;;;11.04;100.00;101933.16;5078121;28;45192;-72
2022/10/09 04:44:33;;;;;;;;;2.75;2.75;;;;;11.00;100.00;101924.25;5078271;28;58936;-72
2022/10/09 04:46:58;;;;;;;;;3.00;3.00;;;;;11.02;100.00;101924.28;5078393;27;49360;-72
2022/10/09 04:49:24;;;;;;;;;2.75;2.00;;;;;11.01;100.00;101923.38;5078448;28;46605;-72
2022/10/09 04:51:49;;;;;;;;;4.25;2.00;;;;;11.00;100.00;101921.59;5077540;28;59981;-72
2022/10/09 04:54:14;;;;;;;;;4.00;3.00;;;;;10.98;100.00;101910.09;5059824;28;53293;-72
2022/10/09 04:56:40;;;;;;;;;3.50;2.00;;;;;10.95;100.00;101904.72;5060088;28;45553;-72
2022/10/09 04:59:05;;;;;;;;;4.50;1.75;;;;;10.97;100.00;101905.69;5078268;28;46655;-72
2022/10/09 05:01:30;;;;;;;;;3.25;2.00;;;;;10.95;100.00;101907.38;5078397;28;45480;-72
2022/10/09 05:03:56;;;;;;;;;2.00;2.00;;;;;10.93;100.00;101895.88;5078448;28;47819;-72
2022/10/09 05:06:22;;;;;;;;;1.00;1.00;;;;;10.93;100.00;101905.56;5060274;28;45323;-72
2022/10/09 05:08:48;;;;;;;;;5.25;2.00;;;;;10.95;100.00;101910.00;5060070;28;46644;-71
2022/10/09 05:11:19;;;;;;;;;4.25;4.25;;;;;10.94;100.00;101907.34;5059695;28;45313;-71
2022/10/09 05:13:48;;;;;;;;;7.00;3.00;;;;;10.92;100.00;101907.31;5060241;28;45307;-72
2022/10/09 05:16:16;;;;;;;;;4.75;3.00;;;;;10.89;100.00;101912.50;5060071;28;45538;-72
2022/10/09 05:18:44;;;;;;;;;6.00;6.00;;;;;10.88;100.00;101904.53;5077879;28;46516;-72
2022/10/09 05:21:09;;;;;;;;;6.00;4.00;;;;;10.84;100.00;101907.94;5077665;28;45221;-72
2022/10/09 05:23:34;;;;;;;;;4.50;3.50;;;;;10.84;100.00;101898.25;5077408;28;46441;-72
2022/10/09 05:26:05;;;;;;;;;3.00;3.00;;;;;10.80;100.00;101888.47;5077451;28;50994;-72
2022/10/09 05:28:31;;;;;;;;;2.50;2.50;;;;;10.80;100.00;101899.03;5059582;28;45624;-71
2022/10/09 05:30:57;;;;;;;;;3.50;2.75;;;;;10.76;100.00;101894.53;5059569;28;45306;-70
2022/10/09 05:33:22;;;;;;;;;7.00;3.00;;;;;10.77;100.00;101888.41;5059061;28;50625;-71
2022/10/09 05:35:55;;;;;;;;;4.00;3.00;;;;;10.74;100.00;101885.66;5077081;28;56923;-72
2022/10/09 05:38:22;;;;;;;;;3.00;3.00;;;;;10.71;100.00;101881.19;5077142;28;46577;-72
2022/10/09 05:40:55;;;;;;;;;3.50;3.00;;;;;10.70;100.00;101884.66;5077437;28;45380;-71
2022/10/09 05:43:32;;;;;;;;;3.25;3.25;;;;;10.70;100.00;101882.03;5064900;28;45319;-71
2022/10/09 05:46:14;;;;;;;;;7.00;5.75;;;;;10.66;100.00;101881.94;5077374;28;45453;-72
2022/10/09 05:48:42;;;;;;;;;6.75;3.50;;;;;10.67;100.00;101883.72;5076815;28;46599;-72
2022/10/09 05:51:20;;;;;;;;;5.75;2.75;;;;;10.65;100.00;101877.47;5077353;28;45281;-72
2022/10/09 05:53:46;;;;;;;;;4.75;4.25;;;;;10.66;100.00;101881.94;5059729;28;45385;-72
2022/10/09 05:56:22;;;;;;;;;7.75;4.00;;;;;10.61;100.00;101867.69;5077288;28;45621;-72
2022/10/09 05:58:53;;;;;;;;;6.00;4.00;;;;;10.62;100.00;101866.84;5077454;28;46778;-72
2022/10/09 06:01:18;;;;;;;;;3.25;2.75;;;;;10.58;100.00;101867.59;5076832;28;45410;-72
2022/10/09 06:03:49;;;;;;;;;4.75;4.00;;;;;10.60;100.00;101871.16;5077306;28;45499;-72
2022/10/09 06:06:15;;;;;;;;;3.75;3.75;;;;;10.59;100.00;101870.28;5077476;28;45292;-72
2022/10/09 06:08:40;;;;;;;;;4.75;3.25;;;;;10.57;100.00;101868.47;5058601;28;46623;-72
2022/10/09 06:11:10;;;;;;;;;4.00;4.00;;;;;10.56;100.00;101871.97;5189445;22;56613;-72
2022/10/09 06:13:35;;;;;;;;;6.50;4.00;;;;;10.58;100.00;101876.41;5056914;28;45341;-72
2022/10/09 06:16:01;;;;;;;;;5.75;2.25;;;;;10.56;100.00;101870.22;5056609;28;45154;-72
2022/10/09 06:18:26;;;;;;;;;4.75;4.00;;;;;10.58;100.00;101864.97;5056319;28;46535;-71
2022/10/09 06:20:56;;;;;;;;;3.00;2.75;;;;;10.59;100.00;101869.38;5038530;28;45227;-71
2022/10/09 06:23:21;;;;;;;;;4.50;2.75;;;;;10.57;100.00;101855.25;5056907;28;45373;-72
2022/10/09 06:25:52;;;;;;;;;6.50;3.50;;;;;10.61;100.00;101873.88;5056885;28;45698;-71
2022/10/09 06:28:17;;;;;;;;;3.25;3.25;;;;;10.58;100.00;101864.97;5038929;28;46826;-72
2022/10/09 06:30:42;;;;;;;;;5.25;5.25;;;;;10.63;100.00;101864.22;5055442;28;60132;-72
2022/10/09 06:33:08;;;;;;;;;7.75;5.25;;;;;10.63;100.00;101858.06;5055955;28;56723;-71
2022/10/09 06:35:34;;;;;;;;;7.25;4.25;;;;;10.64;100.00;101854.56;5056660;28;49509;-71
2022/10/09 06:37:59;;;;;;;;;6.75;4.00;;;;;10.67;100.00;101857.28;5042321;28;46891;-72
2022/10/09 06:40:24;;;;;;;;;4.75;4.75;;;;;10.68;100.00;101859.06;5059376;28;60716;-72
2022/10/09 06:42:50;;;;;;;;;6.00;6.00;;;;;10.68;100.00;101849.41;5059405;28;57898;-71
2022/10/09 06:45:15;;;;;;;;;7.50;4.00;;;;;10.72;100.00;101859.22;5059392;28;54847;-71
2022/10/09 06:47:40;;;;;;;;;7.00;4.50;;;;;10.73;100.00;101858.34;5059492;28;65072;-71
2022/10/09 06:50:06;;;;;;;;;10.00;5.75;;;;;10.77;100.00;101861.97;5059622;28;58181;-71
2022/10/09 06:52:32;;;;;;;;;3.75;3.25;;;;;10.80;100.00;101856.75;5060155;28;45272;-71
2022/10/09 06:54:57;;;;;;;;;6.00;3.00;;;;;10.86;100.00;101856.91;5059501;28;54696;-72
2022/10/09 06:57:22;;;;;;;;;3.25;3.25;;;;;10.86;100.00;101854.25;5059643;28;60871;-72
2022/10/09 06:59:49;;;;;;;;;3.50;3.00;;;;;10.90;100.00;101857.91;5059302;28;52828;-72
2022/10/09 07:02:14;;;;;;;;;7.00;4.00;;;;;10.94;100.00;101863.31;5059982;28;45407;-71
2022/10/09 07:04:40;;;;;;;;;5.00;3.75;;;;;10.97;100.00;101858.13;5059841;28;45354;-72
2022/10/09 07:07:05;;;;;;;;;7.75;5.50;;;;;11.02;100.00;101856.47;5059621;28;45584;-72
2022/10/09 07:09:30;;;;;;;;;6.75;4.25;;;;;11.06;100.00;101852.16;5059020;28;62008;-71
2022/10/09 07:11:56;;;;;;;;;5.75;4.00;;;;;11.11;100.00;101854.91;5059171;28;49385;-71
2022/10/09 07:14:21;;;;;;;;;8.25;4.00;;;;;11.17;100.00;101847.13;5041128;28;49380;-72
2022/10/09 07:16:47;;;;;;;;;6.00;3.75;;;;;11.20;100.00;101850.75;5058816;28;63540;-72
2022/10/09 07:19:14;;;;;;;;;5.75;4.00;;;;;11.21;100.00;101844.59;5041636;28;45262;-71
2022/10/09 07:21:43;;;;;;;;;4.25;4.25;;;;;11.26;100.00;101844.72;5058654;28;45454;-71
2022/10/09 07:24:09;;;;;;;;;5.00;5.00;;;;;11.30;100.00;101843.94;5059278;28;45477;-71
2022/10/09 07:26:38;;;;;;;;;8.75;4.75;;;;;11.33;100.00;101848.41;5041285;28;45907;-72
2022/10/09 07:29:04;;;;;;;;;4.75;3.75;;;;;11.36;100.00;101846.72;5057343;28;45600;-71
2022/10/09 07:31:30;;;;;;;;;8.75;3.75;;;;;11.40;100.00;101845.97;5058744;28;45506;-71
2022/10/09 07:33:55;;;;;;;;;5.00;4.75;;;;;11.44;100.00;101846.91;5059357;28;45315;-72
2022/10/09 07:36:22;;;;;;;;;6.50;3.75;;;;;11.48;100.00;101841.72;5041139;28;46663;-71
2022/10/09 07:38:53;;;;;;;;;6.75;4.75;;;;;11.52;100.00;101840.06;5058687;28;45464;-71
2022/10/09 07:41:19;;;;;;;;;3.75;3.75;;;;;11.54;100.00;101831.28;5039773;28;45201;-72
2022/10/09 07:43:45;;;;;;;;;5.25;4.25;;;;;11.59;100.00;101833.16;5058991;28;45435;-71
2022/10/09 07:46:13;;;;;;;;;7.50;5.00;;;;;11.62;100.00;101826.19;5053383;28;46508;-72
2022/10/09 07:48:39;;;;;;;;;9.75;7.25;;;;;11.67;100.00;101829.84;5040332;28;45343;-71
2022/10/09 07:51:08;;;;;;;;;4.50;4.25;;;;;11.73;100.00;101834.38;5058806;28;45272;-71
2022/10/09 07:53:34;;;;;;;;;5.00;4.00;;;;;11.76;100.00;101827.38;5058777;28;45454;-71
2022/10/09 07:55:59;;;;;;;;;7.75;6.25;;;;;11.80;100.00;101820.41;5040242;28;56979;-72
2022/10/09 07:58:24;;;;;;;;;7.50;4.25;;;;;11.86;100.00;101815.28;5057817;28;62971;-71
2022/10/09 08:00:50;;;;;;;;;9.25;5.25;;;;;11.90;100.00;101803.91;5058658;28;54035;-72
2022/10/09 08:03:15;;;;;;;;;5.75;4.25;;;;;11.95;100.00;101802.25;5058103;28;56808;-71
2022/10/09 08:05:40;;;;;;;;;9.00;4.25;;;;;11.98;100.00;101812.88;5057883;28;62698;-71
2022/10/09 08:08:06;;;;;;;;;6.25;5.00;;;;;12.03;100.00;101808.56;5039801;28;45517;-71
2022/10/09 08:10:32;;;;;;;;;7.50;5.00;;;;;12.08;100.00;101811.31;5057941;28;45333;-73
2022/10/09 08:12:57;;;;;;;;;8.00;6.25;;;;;12.14;100.00;101805.25;5054420;28;45426;-72
2022/10/09 08:15:23;;;;;;;;;6.50;5.25;;;;;12.17;100.00;101805.31;5049603;28;45765;-71
2022/10/09 08:17:51;;;;;;;;;4.50;4.00;;;;;12.22;100.00;101804.56;5052496;28;45405;-71
2022/10/09 08:20:17;;;;;;;;;4.50;4.50;;;;;12.26;100.00;101811.69;5058342;28;45393;-71
2022/10/09 08:22:42;;;;;;;;;5.00;5.00;;;;;12.31;100.00;101807.38;5057226;28;58641;-72
2022/10/09 08:25:07;;;;;;;;;5.25;5.00;;;;;12.38;100.00;101805.75;5056813;28;53242;-71
2022/10/09 08:27:33;;;;;;;;;10.50;9.50;;;;;12.40;100.00;101795.16;5055169;28;45413;-72
2022/10/09 08:29:58;;;;;;;;;9.50;9.25;;;;;12.47;100.00;101795.34;5058223;28;45411;-71
2022/10/09 08:32:24;;;;;;;;;8.25;6.25;;;;;12.47;100.00;101792.69;5057603;28;55491;-73
2022/10/09 08:34:50;;;;;;;;;5.25;4.75;;;;;12.40;100.00;101790.75;5057210;28;62613;-74
2022/10/09 08:37:15;;;;;;;;;4.00;4.00;;;;;12.33;100.00;101789.75;5057946;28;45375;-72
2022/10/09 08:39:40;;;;;;;;;3.75;3.00;;;;;12.31;100.00;101785.31;5058108;28;45477;-73
2022/10/09 08:42:06;;;;;;;;;11.00;7.00;;;;;12.26;100.00;101790.50;5058341;28;45487;-70
2022/10/09 08:44:47;;;;;;;;;9.50;6.25;;;;;12.32;100.00;101795.03;5039112;28;63061;-71
2022/10/09 08:47:22;;;;;;;;;8.00;8.00;;;;;12.38;100.00;101794.25;5057324;28;45336;-73
2022/10/09 08:49:50;;;;;;;;;10.50;8.25;;;;;12.45;100.00;101781.16;5039142;28;45424;-71
2022/10/09 08:52:39;;;;;;;;;6.00;6.00;;;;;12.53;100.00;101783.97;5056410;28;45609;-71
2022/10/09 08:55:46;;;;;;;;;7.00;7.00;;;;;12.62;100.00;101784.09;5055786;28;46035;-73
2022/10/09 08:58:15;;;;;;;;;9.67;9.00;;;;;12.65;100.00;101770.03;5049980;28;46043;-73
2022/10/09 09:00:48;;;;;;;;;5.00;5.00;;;;;12.69;100.00;101770.13;5035968;28;45544;-73
2022/10/09 09:03:31;;;;;;;;;11.00;7.00;;;;;12.70;100.00;101771.88;5054869;28;45495;-73
2022/10/09 09:06:13;;;;;;;;;10.00;7.00;;;;;12.73;100.00;101773.69;5048513;28;46052;-72
2022/10/09 09:08:43;;;;;;;;;11.00;9.00;;;;;12.76;100.00;101757.84;5057336;28;45305;-73
2022/10/09 09:11:33;;;;;;;;;9.50;7.75;;;;;12.80;100.00;101759.69;5057577;28;45252;-73
2022/10/09 09:14:12;;;;;;;;;13.00;10.25;;;;;12.84;100.00;101753.59;5057284;28;45694;-73
2022/10/09 09:16:52;;;;;;;;;10.50;10.50;;;;;12.88;100.00;101744.78;5039007;28;45952;-74
2022/10/09 09:19:33;;;;;;;;;12.50;10.50;;;;;12.99;100.00;101742.31;5055497;28;45338;-74
2022/10/09 09:21:59;;;;;;;;;13.50;10.00;;;;;13.05;100.00;101740.66;5055280;28;45479;-73
2022/10/09 09:24:37;;;;;;;;;12.50;9.50;;;;;13.10;100.00;101732.75;5036482;28;55495;-74
2022/10/09 09:27:11;;;;;;;;;8.33;8.33;;;;;13.18;100.00;101731.13;5036212;28;46592;-73
2022/10/09 09:29:47;;;;;;;;;15.25;11.00;;;;;13.25;100.00;101738.31;5056882;28;45372;-74
2022/10/09 09:32:31;;;;;;;;;12.00;7.50;;;;;13.32;100.00;101720.75;5038458;28;45427;-73
2022/10/09 09:35:14;;;;;;;;;13.75;8.75;;;;;13.41;100.00;101718.22;5057311;28;45305;-71
2022/10/09 09:37:39;;;;;;;;;15.33;13.00;;;;;13.47;100.00;101706.78;5056998;28;45422;-72
2022/10/09 09:40:12;;;;;;;;;10.67;9.33;;;;;13.56;100.00;101710.47;5056165;28;46361;-74
2022/10/09 09:42:37;;;;;;;;;8.33;8.33;;;;;13.63;100.00;101704.38;5038719;28;45269;-74
2022/10/09 09:45:05;;;;;;;;;15.00;13.33;;;;;13.73;100.00;101702.69;5056245;28;50715;-75
2022/10/09 09:48:28;;;;;;;;;12.00;8.00;;;;;13.84;100.00;101695.75;5036242;28;47543;-74
2022/10/09 09:50:53;;;;;;;;;14.33;8.00;;;;;13.95;100.00;101695.88;4974565;28;45337;-75
2022/10/09 09:53:30;;;;;;;;;12.00;9.33;;;;;14.03;100.00;101693.31;4974667;28;45370;-76
2022/10/09 09:55:56;;;;;;;;;8.67;8.00;;;;;14.12;100.00;101689.00;5029278;28;45323;-73
2022/10/09 09:58:22;;;;;;;;;12.00;9.00;;;;;14.22;100.00;101687.34;5021414;28;46660;-73
2022/10/09 10:00:54;;;;;;;;;9.00;8.67;;;;;14.30;100.00;101684.72;5038780;28;45333;-73
2022/10/09 10:03:20;;;;;;;;;9.00;9.00;;;;;14.38;100.00;101683.94;5038744;28;45337;-73
2022/10/09 10:05:45;;;;;;;;;11.00;8.00;;;;;14.47;100.00;101684.88;5057037;28;45442;-73
2022/10/09 10:08:29;;;;;;;;;12.33;10.00;;;;;14.55;100.00;101673.47;5038660;28;45368;-73
2022/10/09 10:11:00;;;;;;;;;8.00;8.00;;;;;14.65;100.00;101664.72;5033878;28;45404;-74
2022/10/09 10:13:34;;;;;;;;;7.67;7.67;;;;;14.73;100.00;101671.84;5055233;28;45415;-73
2022/10/09 10:15:59;;;;;;;;;6.00;4.67;;;;;14.78;100.00;101668.34;5056773;28;45561;-72
2022/10/09 10:18:27;;;;;;;;;7.67;7.00;;;;;14.85;100.00;101655.97;5038225;28;46283;-73
2022/10/09 10:20:54;;;;;;;;;7.00;5.67;;;;;14.95;100.00;101655.16;5060644;28;45451;-73
2022/10/09 10:23:20;;;;;;;;;6.00;5.00;;;;;15.04;100.00;101641.03;5035660;28;45646;-72
2022/10/09 10:25:45;;;;;;;;;6.67;6.00;;;;;15.09;100.00;101645.50;5053545;28;45477;-73
2022/10/09 10:28:16;;;;;;;;;9.00;7.00;;;;;15.14;100.00;101634.88;5035026;28;61237;-73
2022/10/09 10:30:42;;;;;;;;;8.67;6.00;;;;;15.22;100.00;101633.13;5035034;28;45464;-72
2022/10/09 10:33:28;;;;;;;;;8.67;5.00;;;;;15.31;100.00;101633.19;5035322;28;57879;-72
2022/10/09 10:35:55;;;;;;;;;6.00;6.00;;;;;15.40;100.00;101635.00;5043939;28;45396;-73
2022/10/09 10:38:23;;;;;;;;;7.00;5.00;;;;;15.48;100.00;101629.69;5049363;28;45549;-73
2022/10/09 10:41:13;;;;;;;;;7.00;5.00;;;;;15.57;100.00;101625.28;5035189;28;46110;-73
2022/10/09 10:43:58;;;;;;;;;5.33;5.33;;;;;15.61;100.00;101616.44;5054702;28;45470;-72
2022/10/09 10:46:47;;;;;;;;;4.00;3.00;;;;;15.72;100.00;101616.50;5037216;28;45522;-72
2022/10/09 10:49:19;;;;;;;;;5.00;5.00;;;;;15.79;100.00;101610.28;5036737;28;46716;-72
2022/10/09 10:52:08;;;;;;;;;5.00;3.67;;;;;15.89;100.00;101609.44;5037855;28;45382;-72
2022/10/09 10:54:36;;;;;;;;;3.33;3.33;;;;;15.97;100.00;101599.66;5055119;28;45446;-72
2022/10/09 10:57:11;;;;;;;;;5.33;3.00;;;;;16.05;100.00;101588.13;5056185;28;45341;-72
2022/10/09 10:59:45;;;;;;;;;5.33;3.00;;;;;16.14;100.00;101586.38;5056218;28;46034;-72
2022/10/09 11:02:50;;;;;;;;;3.00;3.00;;;;;16.23;100.00;101582.78;5055771;28;45363;-72
2022/10/09 11:05:40;;;;;;;;;8.00;3.67;;;;;16.34;100.00;101573.00;5055922;28;45353;-72
2022/10/09 11:08:50;;;;;;;;;4.00;4.00;;;;;16.41;100.00;101568.59;5048692;28;45379;-72
2022/10/09 11:11:28;;;;;;;;;6.00;3.00;;;;;16.48;100.00;101559.69;5039449;28;46926;-73
2022/10/09 11:14:05;;;;;;;;;5.33;3.67;;;;;16.56;100.00;101557.88;5054884;28;45405;-72
2022/10/09 11:17:01;;;;;;;;;4.67;3.00;;;;;16.62;100.00;101557.88;5055229;28;45515;-73
2022/10/09 11:20:04;;;;;;;;;4.00;3.67;;;;;16.69;100.00;101553.41;5029192;28;45571;-73
2022/10/09 11:22:54;;;;;;;;;4.00;3.00;;;;;16.79;100.00;101546.31;5053436;28;45905;-73
2022/10/09 11:25:38;;;;;;;;;3.00;3.00;;;;;16.88;100.00;101543.59;5043216;28;45405;-71
2022/10/09 11:28:20;;;;;;;;;4.00;2.67;;;;;16.90;100.00;101537.38;5056949;28;45500;-73